sensor_id;sensor_type;location;lat;lon;timestamp;pressure;altitude;pressure_sealevel;temperature;humidity
56831;BME280;42713;42.676;23.352;2023-12-29T00:00:31;95424.78;;;4.56;71.87
56831;BME280;42713;42.676;23.352;2023-12-29T00:02:56;95422.16;;;4.49;71.47
56831;BME280;42713;42.676;23.352;2023-12-29T00:05:22;95422.88;;;4.43;71.57
56831;BME280;42713;42.676;23.352;2023-12-29T00:07:47;95428.63;;;4.39;72.08
56831;BME280;42713;42.676;23.352;2023-12-29T00:10:13;95426.16;;;4.30;72.37
56831;BME280;42713;42.676;23.352;2023-12-29T00:12:39;95413.94;;;4.24;72.34
56831;BME280;42713;42.676;23.352;2023-12-29T00:15:05;95424.69;;;4.21;73.17
56831;BME280;42713;42.676;23.352;2023-12-29T00:17:33;95433.16;;;4.30;73.57
56831;BME280;42713;42.676;23.352;2023-12-29T00:20:04;95408.06;;;4.15;73.40
56831;BME280;42713;42.676;23.352;2023-12-29T00:22:29;95424.50;;;4.23;73.23
56831;BME280;42713;42.676;23.352;2023-12-29T00:24:55;95411.03;;;4.12;74.08
56831;BME280;42713;42.676;23.352;2023-12-29T00:27:20;95432.66;;;4.19;74.47
56831;BME280;42713;42.676;23.352;2023-12-29T00:29:46;95427.63;;;4.18;74.45
56831;BME280;42713;42.676;23.352;2023-12-29T00:32:11;95410.34;;;4.03;73.33
56831;BME280;42713;42.676;23.352;2023-12-29T00:34:37;95415.53;;;4.03;73.73
56831;BME280;42713;42.676;23.352;2023-12-29T00:37:03;95410.34;;;4.03;73.99
56831;BME280;42713;42.676;23.352;2023-12-29T00:39:28;95404.91;;;3.98;74.28
56831;BME280;42713;42.676;23.352;2023-12-29T00:41:56;95404.53;;;4.01;74.05
56831;BME280;42713;42.676;23.352;2023-12-29T00:44:23;95419.44;;;4.14;74.04
56831;BME280;42713;42.676;23.352;2023-12-29T00:46:49;95430.84;;;4.20;73.98
56831;BME280;42713;42.676;23.352;2023-12-29T00:49:15;95410.84;;;4.14;73.82
56831;BME280;42713;42.676;23.352;2023-12-29T00:51:40;95417.22;;;4.11;73.16
56831;BME280;42713;42.676;23.352;2023-12-29T00:54:07;95408.56;;;4.04;73.28
56831;BME280;42713;42.676;23.352;2023-12-29T00:56:32;95398.75;;;3.99;73.13
56831;BME280;42713;42.676;23.352;2023-12-29T00:58:58;95406.78;;;4.04;73.16
56831;BME280;42713;42.676;23.352;2023-12-29T01:01:24;95414.78;;;4.10;72.92
56831;BME280;42713;42.676;23.352;2023-12-29T01:03:49;95405.81;;;4.05;72.45
56831;BME280;42713;42.676;23.352;2023-12-29T01:06:15;95386.59;;;4.00;73.14
56831;BME280;42713;42.676;23.352;2023-12-29T01:08:40;95394.69;;;4.12;72.72
56831;BME280;42713;42.676;23.352;2023-12-29T01:11:08;95399.78;;;4.05;72.73
56831;BME280;42713;42.676;23.352;2023-12-29T01:13:35;95406.31;;;4.16;72.44
56831;BME280;42713;42.676;23.352;2023-12-29T01:16:00;95400.28;;;4.15;71.60
56831;BME280;42713;42.676;23.352;2023-12-29T01:18:26;95418.63;;;4.14;71.97
56831;BME280;42713;42.676;23.352;2023-12-29T01:20:51;95405.72;;;3.99;72.50
56831;BME280;42713;42.676;23.352;2023-12-29T01:23:17;95403.69;;;3.94;71.88
56831;BME280;42713;42.676;23.352;2023-12-29T01:25:43;95409.97;;;3.85;72.34
56831;BME280;42713;42.676;23.352;2023-12-29T01:28:09;95421.56;;;3.89;72.58
56831;BME280;42713;42.676;23.352;2023-12-29T01:30:35;95404.81;;;3.70;73.18
56831;BME280;42713;42.676;23.352;2023-12-29T01:33:00;95403.00;;;3.70;73.39
56831;BME280;42713;42.676;23.352;2023-12-29T01:35:26;95399.56;;;3.63;73.90
56831;BME280;42713;42.676;23.352;2023-12-29T01:37:51;95397.03;;;3.70;74.20
56831;BME280;42713;42.676;23.352;2023-12-29T01:40:17;95412.59;;;3.70;73.64
56831;BME280;42713;42.676;23.352;2023-12-29T01:42:42;95421.97;;;3.71;73.36
56831;BME280;42713;42.676;23.352;2023-12-29T01:45:23;95398.69;;;3.56;73.72
56831;BME280;42713;42.676;23.352;2023-12-29T01:47:50;95419.97;;;3.73;74.45
56831;BME280;42713;42.676;23.352;2023-12-29T01:50:21;95407.59;;;3.53;73.95
56831;BME280;42713;42.676;23.352;2023-12-29T01:52:48;95400.34;;;3.49;73.96
56831;BME280;42713;42.676;23.352;2023-12-29T01:55:18;95402.34;;;3.47;75.63
56831;BME280;42713;42.676;23.352;2023-12-29T01:57:45;95398.69;;;3.41;75.63
56831;BME280;42713;42.676;23.352;2023-12-29T02:00:12;95404.94;;;3.47;76.21
56831;BME280;42713;42.676;23.352;2023-12-29T02:02:39;95409.13;;;3.48;77.03
56831;BME280;42713;42.676;23.352;2023-12-29T02:05:05;95402.50;;;3.45;77.33
56831;BME280;42713;42.676;23.352;2023-12-29T02:07:32;95388.16;;;3.42;77.27
56831;BME280;42713;42.676;23.352;2023-12-29T02:09:58;95394.59;;;3.47;76.09
56831;BME280;42713;42.676;23.352;2023-12-29T02:12:24;95388.66;;;3.53;76.19
56831;BME280;42713;42.676;23.352;2023-12-29T02:14:51;95401.88;;;3.58;76.08
56831;BME280;42713;42.676;23.352;2023-12-29T02:17:26;95398.38;;;3.66;75.05
56831;BME280;42713;42.676;23.352;2023-12-29T02:19:52;95392.56;;;3.64;74.36
56831;BME280;42713;42.676;23.352;2023-12-29T02:22:18;95384.47;;;3.52;74.01
56831;BME280;42713;42.676;23.352;2023-12-29T02:24:48;95392.50;;;3.57;73.37
56831;BME280;42713;42.676;23.352;2023-12-29T02:32:30;95386.00;;;3.46;73.32
56831;BME280;42713;42.676;23.352;2023-12-29T02:34:58;95369.38;;;3.40;73.35
56831;BME280;42713;42.676;23.352;2023-12-29T02:37:25;95372.41;;;3.44;73.51
56831;BME280;42713;42.676;23.352;2023-12-29T02:39:51;95373.59;;;3.41;73.20
56831;BME280;42713;42.676;23.352;2023-12-29T02:42:17;95372.34;;;3.37;73.65
56831;BME280;42713;42.676;23.352;2023-12-29T02:44:42;95364.31;;;3.32;74.09
56831;BME280;42713;42.676;23.352;2023-12-29T02:47:08;95367.72;;;3.33;73.49
56831;BME280;42713;42.676;23.352;2023-12-29T02:49:33;95367.00;;;3.24;73.60
56831;BME280;42713;42.676;23.352;2023-12-29T02:51:58;95356.22;;;3.20;73.50
56831;BME280;42713;42.676;23.352;2023-12-29T02:54:24;95355.94;;;3.15;73.80
56831;BME280;42713;42.676;23.352;2023-12-29T02:56:49;95349.88;;;3.08;73.81
56831;BME280;42713;42.676;23.352;2023-12-29T02:59:15;95342.41;;;2.98;74.20
56831;BME280;42713;42.676;23.352;2023-12-29T03:01:40;95344.78;;;3.00;74.60
56831;BME280;42713;42.676;23.352;2023-12-29T03:04:06;95339.34;;;2.94;75.18
56831;BME280;42713;42.676;23.352;2023-12-29T03:06:32;95341.78;;;2.96;75.11
56831;BME280;42713;42.676;23.352;2023-12-29T03:08:57;95336.59;;;2.96;74.65
56831;BME280;42713;42.676;23.352;2023-12-29T03:11:23;95330.97;;;2.92;74.85
56831;BME280;42713;42.676;23.352;2023-12-29T03:13:48;95327.75;;;2.90;74.49
56831;BME280;42713;42.676;23.352;2023-12-29T03:16:14;95336.94;;;2.93;74.73
56831;BME280;42713;42.676;23.352;2023-12-29T03:18:39;95325.72;;;2.86;74.86
56831;BME280;42713;42.676;23.352;2023-12-29T03:21:07;95327.94;;;2.89;74.39
56831;BME280;42713;42.676;23.352;2023-12-29T03:23:33;95326.50;;;2.86;75.01
56831;BME280;42713;42.676;23.352;2023-12-29T03:25:59;95311.69;;;2.80;74.84
56831;BME280;42713;42.676;23.352;2023-12-29T03:28:24;95318.63;;;2.79;75.59
56831;BME280;42713;42.676;23.352;2023-12-29T03:30:50;95319.19;;;2.75;74.61
56831;BME280;42713;42.676;23.352;2023-12-29T03:33:15;95332.59;;;2.78;75.16
56831;BME280;42713;42.676;23.352;2023-12-29T03:35:41;95325.81;;;2.77;76.14
56831;BME280;42713;42.676;23.352;2023-12-29T03:38:10;95319.72;;;2.70;75.85
56831;BME280;42713;42.676;23.352;2023-12-29T03:40:36;95322.66;;;2.67;76.75
56831;BME280;42713;42.676;23.352;2023-12-29T03:43:02;95323.66;;;2.66;77.09
56831;BME280;42713;42.676;23.352;2023-12-29T03:45:27;95300.63;;;2.56;76.56
56831;BME280;42713;42.676;23.352;2023-12-29T03:47:53;95301.59;;;2.55;76.86
56831;BME280;42713;42.676;23.352;2023-12-29T03:50:18;95318.56;;;2.58;75.84
56831;BME280;42713;42.676;23.352;2023-12-29T03:52:44;95350.16;;;2.68;75.77
56831;BME280;42713;42.676;23.352;2023-12-29T03:55:09;95331.03;;;2.54;76.62
56831;BME280;42713;42.676;23.352;2023-12-29T03:57:36;95313.53;;;2.41;77.03
56831;BME280;42713;42.676;23.352;2023-12-29T04:00:03;95325.66;;;2.41;76.89
56831;BME280;42713;42.676;23.352;2023-12-29T04:02:29;95333.59;;;2.39;76.86
56831;BME280;42713;42.676;23.352;2023-12-29T04:04:55;95323.31;;;2.31;77.35
56831;BME280;42713;42.676;23.352;2023-12-29T04:07:20;95341.28;;;2.47;77.74
56831;BME280;42713;42.676;23.352;2023-12-29T04:09:46;95321.66;;;2.38;78.12
56831;BME280;42713;42.676;23.352;2023-12-29T04:12:11;95327.63;;;2.39;77.50
56831;BME280;42713;42.676;23.352;2023-12-29T04:14:37;95328.06;;;2.42;77.11
56831;BME280;42713;42.676;23.352;2023-12-29T04:17:02;95317.38;;;2.45;77.01
56831;BME280;42713;42.676;23.352;2023-12-29T04:19:29;95322.09;;;2.42;76.97
56831;BME280;42713;42.676;23.352;2023-12-29T04:21:55;95339.59;;;2.55;76.92
56831;BME280;42713;42.676;23.352;2023-12-29T04:24:20;95331.19;;;2.53;77.34
56831;BME280;42713;42.676;23.352;2023-12-29T04:26:46;95327.19;;;2.50;76.74
56831;BME280;42713;42.676;23.352;2023-12-29T04:29:11;95330.03;;;2.55;75.59
56831;BME280;42713;42.676;23.352;2023-12-29T04:31:36;95317.63;;;2.51;75.05
56831;BME280;42713;42.676;23.352;2023-12-29T04:34:02;95306.84;;;2.47;75.35
56831;BME280;42713;42.676;23.352;2023-12-29T04:36:27;95325.88;;;2.54;75.31
56831;BME280;42713;42.676;23.352;2023-12-29T04:38:53;95342.44;;;2.60;75.51
56831;BME280;42713;42.676;23.352;2023-12-29T04:41:19;95342.38;;;2.53;75.14
56831;BME280;42713;42.676;23.352;2023-12-29T04:43:44;95342.81;;;2.57;75.24
56831;BME280;42713;42.676;23.352;2023-12-29T04:46:10;95347.97;;;2.57;75.13
56831;BME280;42713;42.676;23.352;2023-12-29T04:48:35;95334.59;;;2.53;75.08
56831;BME280;42713;42.676;23.352;2023-12-29T04:51:00;95336.56;;;2.51;75.04
56831;BME280;42713;42.676;23.352;2023-12-29T04:53:26;95331.63;;;2.41;75.37
56831;BME280;42713;42.676;23.352;2023-12-29T04:55:51;95332.78;;;2.39;75.02
56831;BME280;42713;42.676;23.352;2023-12-29T04:58:17;95321.81;;;2.37;74.95
56831;BME280;42713;42.676;23.352;2023-12-29T05:00:43;95319.94;;;2.30;74.96
56831;BME280;42713;42.676;23.352;2023-12-29T05:03:08;95324.47;;;2.28;75.77
56831;BME280;42713;42.676;23.352;2023-12-29T05:05:34;95309.38;;;2.17;76.15
56831;BME280;42713;42.676;23.352;2023-12-29T05:07:59;95319.13;;;2.15;75.50
56831;BME280;42713;42.676;23.352;2023-12-29T05:10:25;95308.16;;;2.13;75.55
56831;BME280;42713;42.676;23.352;2023-12-29T05:12:50;95313.47;;;2.11;75.22
56831;BME280;42713;42.676;23.352;2023-12-29T05:15:17;95309.97;;;2.04;75.21
56831;BME280;42713;42.676;23.352;2023-12-29T05:17:42;95293.75;;;1.95;76.02
56831;BME280;42713;42.676;23.352;2023-12-29T05:20:08;95294.22;;;1.99;75.72
56831;BME280;42713;42.676;23.352;2023-12-29T05:22:34;95306.75;;;2.02;75.28
56831;BME280;42713;42.676;23.352;2023-12-29T05:24:59;95305.53;;;1.98;75.53
56831;BME280;42713;42.676;23.352;2023-12-29T05:27:26;95320.50;;;2.02;75.60
56831;BME280;42713;42.676;23.352;2023-12-29T05:29:52;95339.03;;;2.06;75.44
56831;BME280;42713;42.676;23.352;2023-12-29T05:32:17;95331.50;;;1.96;74.89
56831;BME280;42713;42.676;23.352;2023-12-29T05:34:43;95326.06;;;1.91;75.02
56831;BME280;42713;42.676;23.352;2023-12-29T05:37:08;95317.75;;;1.81;75.07
56831;BME280;42713;42.676;23.352;2023-12-29T05:39:34;95316.47;;;1.77;75.33
56831;BME280;42713;42.676;23.352;2023-12-29T05:42:00;95320.22;;;1.74;75.34
56831;BME280;42713;42.676;23.352;2023-12-29T05:44:25;95318.31;;;1.68;75.75
56831;BME280;42713;42.676;23.352;2023-12-29T05:46:51;95327.84;;;1.67;75.66
56831;BME280;42713;42.676;23.352;2023-12-29T05:49:16;95324.16;;;1.62;75.79
56831;BME280;42713;42.676;23.352;2023-12-29T05:51:43;95327.69;;;1.69;75.70
56831;BME280;42713;42.676;23.352;2023-12-29T05:54:09;95325.88;;;1.69;75.77
56831;BME280;42713;42.676;23.352;2023-12-29T05:56:35;95317.88;;;1.64;76.08
56831;BME280;42713;42.676;23.352;2023-12-29T05:59:00;95333.13;;;1.74;76.46
56831;BME280;42713;42.676;23.352;2023-12-29T06:01:26;95318.31;;;1.68;76.84
56831;BME280;42713;42.676;23.352;2023-12-29T06:03:52;95312.81;;;1.71;76.00
56831;BME280;42713;42.676;23.352;2023-12-29T06:06:17;95306.19;;;1.68;76.34
56831;BME280;42713;42.676;23.352;2023-12-29T06:08:43;95310.97;;;1.80;76.12
56831;BME280;42713;42.676;23.352;2023-12-29T06:11:08;95305.63;;;1.81;76.45
56831;BME280;42713;42.676;23.352;2023-12-29T06:13:34;95306.50;;;1.74;76.55
56831;BME280;42713;42.676;23.352;2023-12-29T06:16:00;95325.78;;;1.86;76.31
56831;BME280;42713;42.676;23.352;2023-12-29T06:18:25;95313.66;;;1.86;75.24
56831;BME280;42713;42.676;23.352;2023-12-29T06:20:51;95304.38;;;1.77;75.43
56831;BME280;42713;42.676;23.352;2023-12-29T06:23:16;95310.78;;;1.81;75.26
56831;BME280;42713;42.676;23.352;2023-12-29T06:25:42;95305.88;;;1.71;75.38
56831;BME280;42713;42.676;23.352;2023-12-29T06:28:08;95318.06;;;1.78;75.39
56831;BME280;42713;42.676;23.352;2023-12-29T06:30:34;95314.06;;;1.75;75.49
56831;BME280;42713;42.676;23.352;2023-12-29T06:32:59;95315.69;;;1.76;75.27
56831;BME280;42713;42.676;23.352;2023-12-29T06:35:25;95333.25;;;1.81;75.24
56831;BME280;42713;42.676;23.352;2023-12-29T06:37:50;95328.31;;;1.71;75.65
56831;BME280;42713;42.676;23.352;2023-12-29T06:40:17;95313.78;;;1.70;75.80
56831;BME280;42713;42.676;23.352;2023-12-29T06:42:42;95307.34;;;1.66;76.47
56831;BME280;42713;42.676;23.352;2023-12-29T06:45:08;95307.88;;;1.61;76.83
56831;BME280;42713;42.676;23.352;2023-12-29T06:47:34;95320.22;;;1.74;76.59
56831;BME280;42713;42.676;23.352;2023-12-29T06:50:00;95322.00;;;1.74;76.54
56831;BME280;42713;42.676;23.352;2023-12-29T06:52:27;95318.06;;;1.78;76.84
56831;BME280;42713;42.676;23.352;2023-12-29T06:54:55;95323.56;;;1.83;76.72
56831;BME280;42713;42.676;23.352;2023-12-29T06:57:21;95331.41;;;1.90;76.73
56831;BME280;42713;42.676;23.352;2023-12-29T06:59:46;95320.91;;;1.91;76.94
56831;BME280;42713;42.676;23.352;2023-12-29T07:02:12;95331.50;;;1.96;76.79
56831;BME280;42713;42.676;23.352;2023-12-29T07:04:41;95325.38;;;1.97;76.85
56831;BME280;42713;42.676;23.352;2023-12-29T07:07:07;95320.72;;;1.93;76.92
56831;BME280;42713;42.676;23.352;2023-12-29T07:09:32;95317.00;;;1.95;76.84
56831;BME280;42713;42.676;23.352;2023-12-29T07:12:00;95330.31;;;2.07;77.04
56831;BME280;42713;42.676;23.352;2023-12-29T07:14:25;95330.94;;;2.09;77.65
56831;BME280;42713;42.676;23.352;2023-12-29T07:16:51;95335.69;;;2.21;77.04
56831;BME280;42713;42.676;23.352;2023-12-29T07:19:16;95316.00;;;2.20;77.74
56831;BME280;42713;42.676;23.352;2023-12-29T07:21:42;95319.19;;;2.22;77.58
56831;BME280;42713;42.676;23.352;2023-12-29T07:24:08;95315.28;;;2.26;77.46
56831;BME280;42713;42.676;23.352;2023-12-29T07:26:36;95313.97;;;2.30;77.36
56831;BME280;42713;42.676;23.352;2023-12-29T07:29:03;95323.00;;;2.49;77.47
56831;BME280;42713;42.676;23.352;2023-12-29T07:31:28;95331.50;;;2.58;77.74
56831;BME280;42713;42.676;23.352;2023-12-29T07:33:53;95319.97;;;2.60;77.51
56831;BME280;42713;42.676;23.352;2023-12-29T07:36:19;95319.91;;;2.69;78.14
56831;BME280;42713;42.676;23.352;2023-12-29T07:38:44;95316.97;;;2.72;78.42
56831;BME280;42713;42.676;23.352;2023-12-29T07:41:10;95316.59;;;2.75;78.19
56831;BME280;42713;42.676;23.352;2023-12-29T07:43:35;95320.25;;;2.80;77.78
56831;BME280;42713;42.676;23.352;2023-12-29T07:46:01;95308.47;;;2.78;77.64
56831;BME280;42713;42.676;23.352;2023-12-29T07:48:27;95321.50;;;2.85;77.59
56831;BME280;42713;42.676;23.352;2023-12-29T07:50:53;95310.72;;;2.81;77.53
56831;BME280;42713;42.676;23.352;2023-12-29T07:53:18;95327.31;;;2.87;77.53
56831;BME280;42713;42.676;23.352;2023-12-29T07:55:44;95330.97;;;2.92;77.35
56831;BME280;42713;42.676;23.352;2023-12-29T07:58:11;95332.66;;;3.00;76.86
56831;BME280;42713;42.676;23.352;2023-12-29T08:00:37;95323.81;;;2.94;77.33
56831;BME280;42713;42.676;23.352;2023-12-29T08:03:03;95338.91;;;3.06;77.12
56831;BME280;42713;42.676;23.352;2023-12-29T08:05:29;95343.81;;;3.01;75.37
56831;BME280;42713;42.676;23.352;2023-12-29T08:07:54;95333.38;;;2.94;76.19
56831;BME280;42713;42.676;23.352;2023-12-29T08:10:20;95327.13;;;2.88;76.71
56831;BME280;42713;42.676;23.352;2023-12-29T08:12:45;95335.88;;;3.02;76.53
56831;BME280;42713;42.676;23.352;2023-12-29T08:15:11;95339.53;;;3.08;75.68
56831;BME280;42713;42.676;23.352;2023-12-29T08:17:36;95342.56;;;3.11;75.40
56831;BME280;42713;42.676;23.352;2023-12-29T08:20:03;95339.97;;;3.11;74.38
56831;BME280;42713;42.676;23.352;2023-12-29T08:22:30;95329.59;;;3.11;74.94
56831;BME280;42713;42.676;23.352;2023-12-29T08:24:55;95335.06;;;3.17;74.35
56831;BME280;42713;42.676;23.352;2023-12-29T08:27:24;95337.34;;;3.26;74.40
56831;BME280;42713;42.676;23.352;2023-12-29T08:29:53;95334.53;;;3.21;74.10
56831;BME280;42713;42.676;23.352;2023-12-29T08:32:19;95340.03;;;3.33;74.33
56831;BME280;42713;42.676;23.352;2023-12-29T08:34:45;95340.47;;;3.37;73.71
56831;BME280;42713;42.676;23.352;2023-12-29T08:37:10;95330.97;;;3.44;73.32
56831;BME280;42713;42.676;23.352;2023-12-29T08:39:36;95330.97;;;3.44;73.14
56831;BME280;42713;42.676;23.352;2023-12-29T08:42:01;95332.31;;;3.55;73.11
56831;BME280;42713;42.676;23.352;2023-12-29T08:44:27;95331.84;;;3.66;73.22
56831;BME280;42713;42.676;23.352;2023-12-29T08:46:52;95328.06;;;3.69;73.11
56831;BME280;42713;42.676;23.352;2023-12-29T08:49:18;95313.31;;;3.69;73.40
56831;BME280;42713;42.676;23.352;2023-12-29T08:51:44;95327.84;;;3.85;72.83
56831;BME280;42713;42.676;23.352;2023-12-29T08:54:09;95327.09;;;3.92;71.79
56831;BME280;42713;42.676;23.352;2023-12-29T08:56:35;95315.38;;;3.96;72.18
56831;BME280;42713;42.676;23.352;2023-12-29T08:59:00;95329.59;;;4.07;71.57
56831;BME280;42713;42.676;23.352;2023-12-29T09:01:26;95319.88;;;4.09;70.77
56831;BME280;42713;42.676;23.352;2023-12-29T09:03:51;95323.13;;;4.17;71.22
56831;BME280;42713;42.676;23.352;2023-12-29T09:06:17;95325.22;;;4.29;71.03
56831;BME280;42713;42.676;23.352;2023-12-29T09:08:42;95329.91;;;4.40;71.32
56831;BME280;42713;42.676;23.352;2023-12-29T09:11:08;95341.34;;;4.52;71.04
56831;BME280;42713;42.676;23.352;2023-12-29T09:13:34;95322.22;;;4.54;70.65
56831;BME280;42713;42.676;23.352;2023-12-29T09:15:59;95312.81;;;4.52;69.79
56831;BME280;42713;42.676;23.352;2023-12-29T09:18:25;95313.69;;;4.60;69.62
56831;BME280;42713;42.676;23.352;2023-12-29T09:20:51;95310.75;;;4.70;70.74
56831;BME280;42713;42.676;23.352;2023-12-29T09:23:17;95301.81;;;4.79;69.78
56831;BME280;42713;42.676;23.352;2023-12-29T09:25:43;95305.28;;;4.93;69.86
56831;BME280;42713;42.676;23.352;2023-12-29T09:28:08;95313.75;;;5.08;69.92
56831;BME280;42713;42.676;23.352;2023-12-29T09:30:34;95304.41;;;5.14;69.36
56831;BME280;42713;42.676;23.352;2023-12-29T09:32:59;95305.63;;;5.25;69.13
56831;BME280;42713;42.676;23.352;2023-12-29T09:35:25;95289.22;;;5.24;68.96
56831;BME280;42713;42.676;23.352;2023-12-29T09:37:51;95306.06;;;5.35;68.97
56831;BME280;42713;42.676;23.352;2023-12-29T09:40:17;95298.06;;;5.37;69.17
56831;BME280;42713;42.676;23.352;2023-12-29T09:42:43;95305.72;;;5.52;68.85
56831;BME280;42713;42.676;23.352;2023-12-29T09:45:11;95291.53;;;5.61;68.50
56831;BME280;42713;42.676;23.352;2023-12-29T09:47:39;95295.34;;;5.65;68.32
56831;BME280;42713;42.676;23.352;2023-12-29T09:50:06;95292.56;;;5.67;67.89
56831;BME280;42713;42.676;23.352;2023-12-29T09:52:38;95290.97;;;5.72;67.73
56831;BME280;42713;42.676;23.352;2023-12-29T09:55:05;95293.38;;;5.81;68.08
56831;BME280;42713;42.676;23.352;2023-12-29T09:57:35;95285.59;;;5.87;68.41
56831;BME280;42713;42.676;23.352;2023-12-29T10:00:01;95274.59;;;5.85;68.09
56831;BME280;42713;42.676;23.352;2023-12-29T10:02:27;95264.59;;;5.89;68.08
56831;BME280;42713;42.676;23.352;2023-12-29T10:04:53;95278.63;;;6.08;67.92
56831;BME280;42713;42.676;23.352;2023-12-29T10:07:32;95257.84;;;6.08;67.80
56831;BME280;42713;42.676;23.352;2023-12-29T10:10:01;95268.03;;;6.23;67.90
56831;BME280;42713;42.676;23.352;2023-12-29T10:12:28;95236.81;;;6.10;67.48
56831;BME280;42713;42.676;23.352;2023-12-29T10:17:48;95256.41;;;6.39;67.35
56831;BME280;42713;42.676;23.352;2023-12-29T10:20:51;95246.41;;;6.49;66.85
56831;BME280;42713;42.676;23.352;2023-12-29T10:23:24;95238.78;;;6.48;66.67
56831;BME280;42713;42.676;23.352;2023-12-29T10:25:53;95225.75;;;6.48;67.26
56831;BME280;42713;42.676;23.352;2023-12-29T10:28:18;95235.75;;;6.58;67.61
56831;BME280;42713;42.676;23.352;2023-12-29T10:30:44;95220.53;;;6.68;67.11
56831;BME280;42713;42.676;23.352;2023-12-29T10:33:10;95213.72;;;6.67;67.30
56831;BME280;42713;42.676;23.352;2023-12-29T10:35:36;95205.28;;;6.72;66.10
56831;BME280;42713;42.676;23.352;2023-12-29T10:38:11;95202.25;;;6.81;66.23
56831;BME280;42713;42.676;23.352;2023-12-29T10:40:37;95201.84;;;6.84;66.61
56831;BME280;42713;42.676;23.352;2023-12-29T10:43:03;95196.38;;;6.93;66.11
56831;BME280;42713;42.676;23.352;2023-12-29T10:45:34;95199.53;;;7.08;65.74
56831;BME280;42713;42.676;23.352;2023-12-29T10:48:00;95184.06;;;7.13;65.96
56831;BME280;42713;42.676;23.352;2023-12-29T10:50:30;95167.47;;;7.08;66.03
56831;BME280;42713;42.676;23.352;2023-12-29T10:53:11;95165.41;;;7.23;65.58
56831;BME280;42713;42.676;23.352;2023-12-29T10:55:42;95176.69;;;7.42;65.23
56831;BME280;42713;42.676;23.352;2023-12-29T10:58:08;95161.00;;;7.49;65.56
56831;BME280;42713;42.676;23.352;2023-12-29T11:00:35;95163.91;;;7.66;64.38
56831;BME280;42713;42.676;23.352;2023-12-29T11:03:01;95162.44;;;7.70;64.63
56831;BME280;42713;42.676;23.352;2023-12-29T11:05:27;95167.97;;;7.81;64.13
56831;BME280;42713;42.676;23.352;2023-12-29T11:07:54;95168.75;;;7.88;64.69
56831;BME280;42713;42.676;23.352;2023-12-29T11:10:21;95155.25;;;7.91;64.54
56831;BME280;42713;42.676;23.352;2023-12-29T11:15:17;95141.47;;;8.09;63.45
56831;BME280;42713;42.676;23.352;2023-12-29T11:17:43;95148.78;;;8.19;63.83
56831;BME280;42713;42.676;23.352;2023-12-29T11:20:18;95136.13;;;8.22;63.04
56831;BME280;42713;42.676;23.352;2023-12-29T11:22:46;95131.69;;;8.23;63.10
56831;BME280;42713;42.676;23.352;2023-12-29T11:25:11;95141.78;;;8.38;63.10
56831;BME280;42713;42.676;23.352;2023-12-29T11:27:37;95142.72;;;8.44;63.10
56831;BME280;42713;42.676;23.352;2023-12-29T11:30:04;95145.66;;;8.54;62.32
56831;BME280;42713;42.676;23.352;2023-12-29T11:32:37;95122.16;;;8.54;62.50
56831;BME280;42713;42.676;23.352;2023-12-29T11:35:32;95137.22;;;8.70;62.25
56831;BME280;42713;42.676;23.352;2023-12-29T11:38:08;95137.91;;;8.78;62.15
56831;BME280;42713;42.676;23.352;2023-12-29T11:43:16;95125.78;;;8.83;61.98
56831;BME280;42713;42.676;23.352;2023-12-29T11:45:43;95135.41;;;9.01;62.25
56831;BME280;42713;42.676;23.352;2023-12-29T11:48:09;95121.44;;;9.08;62.30
56831;BME280;42713;42.676;23.352;2023-12-29T11:50:37;95113.88;;;9.18;62.23
56831;BME280;42713;42.676;23.352;2023-12-29T11:53:06;95107.84;;;9.17;61.64
56831;BME280;42713;42.676;23.352;2023-12-29T11:55:38;95114.34;;;9.27;61.77
56831;BME280;42713;42.676;23.352;2023-12-29T11:58:23;95116.41;;;9.37;61.37
56831;BME280;42713;42.676;23.352;2023-12-29T12:00:53;95113.59;;;9.50;61.23
56831;BME280;42713;42.676;23.352;2023-12-29T12:03:30;95109.41;;;9.61;59.73
56831;BME280;42713;42.676;23.352;2023-12-29T12:05:58;95093.59;;;9.68;60.16
56831;BME280;42713;42.676;23.352;2023-12-29T12:08:32;95102.25;;;9.80;60.17
56831;BME280;42713;42.676;23.352;2023-12-29T12:14:02;95106.34;;;10.11;59.16
56831;BME280;42713;42.676;23.352;2023-12-29T12:16:48;95100.88;;;10.25;58.75
56831;BME280;42713;42.676;23.352;2023-12-29T12:19:15;95110.44;;;10.43;58.93
56831;BME280;42713;42.676;23.352;2023-12-29T12:26:45;95086.50;;;10.80;57.42
56831;BME280;42713;42.676;23.352;2023-12-29T12:29:13;95079.06;;;10.89;57.46
56831;BME280;42713;42.676;23.352;2023-12-29T12:31:55;95102.78;;;11.11;57.51
56831;BME280;42713;42.676;23.352;2023-12-29T12:34:21;95099.78;;;11.19;56.44
56831;BME280;42713;42.676;23.352;2023-12-29T12:36:51;95094.59;;;11.25;56.58
56831;BME280;42713;42.676;23.352;2023-12-29T12:39:17;95097.88;;;11.32;56.11
56831;BME280;42713;42.676;23.352;2023-12-29T12:41:43;95104.25;;;11.36;55.67
56831;BME280;42713;42.676;23.352;2023-12-29T12:44:15;95099.63;;;11.43;55.44
56831;BME280;42713;42.676;23.352;2023-12-29T12:49:13;95090.16;;;11.76;54.90
56831;BME280;42713;42.676;23.352;2023-12-29T12:51:39;95092.28;;;11.96;54.83
56831;BME280;42713;42.676;23.352;2023-12-29T12:54:06;95090.38;;;12.09;54.71
56831;BME280;42713;42.676;23.352;2023-12-29T12:56:31;95093.41;;;12.18;53.33
56831;BME280;42713;42.676;23.352;2023-12-29T12:58:57;95102.81;;;12.36;53.25
56831;BME280;42713;42.676;23.352;2023-12-29T13:01:24;95088.72;;;12.42;53.29
56831;BME280;42713;42.676;23.352;2023-12-29T13:03:51;95086.22;;;12.52;53.00
56831;BME280;42713;42.676;23.352;2023-12-29T13:06:17;95096.84;;;12.63;50.25
56831;BME280;42713;42.676;23.352;2023-12-29T13:08:44;95092.06;;;12.59;48.80
56831;BME280;42713;42.676;23.352;2023-12-29T13:11:10;95093.66;;;12.60;49.13
56831;BME280;42713;42.676;23.352;2023-12-29T13:13:39;95100.31;;;12.68;49.51
56831;BME280;42713;42.676;23.352;2023-12-29T13:16:05;95089.84;;;12.73;49.06
56831;BME280;42713;42.676;23.352;2023-12-29T13:18:30;95093.34;;;12.79;48.45
56831;BME280;42713;42.676;23.352;2023-12-29T13:20:57;95087.34;;;12.84;48.46